Du har inga inställningar för hoppväder.nu

Hoppväder.nu

Senast uppdaterat 02:29

UTC-tid

2019-07-24 kl. 00:29


Sol och måne

Solen går upp 4:51 och går ner 22:30 (beräknade cirkatider)
Nästa fullmåne blir om 22 dagar (2019-08-15)

METAR

ESMX (Växjö)
(9 minuter sedan)
ESMX 240020Z 35003KT CAVOK 15/15 Q1019=



ESMT (Halmstad)
(9 minuter sedan)
ESMT 240020Z AUTO VRB02KT 0050 R01/0450N R19/0250N FG VV001 17/16 Q1019=



ESGJ (Jönköping)
(9 minuter sedan)
ESGJ 240020Z AUTO 00000KT 9999 BKN038/// 13/13 Q1019=



ESMK (Everöd)
(9 minuter sedan)
ESMK 240020Z AUTO 30004KT 9999 NCD 17/17 Q1019=






TAF

ESMX (Växjö)
(1499 minuter sedan)
ESMX 232330Z 2400/2402 29002KT CAVOK PROB40 2400/2402 0600 BCFG BKN002=



ESMT (Halmstad)
ESMT



ESGJ (Jönköping)
(239 minuter sedan)
ESGJ 232030Z 2321/2401 29003KT 9999 SCT045 PROB40 2400/2401 1200 BCFG=



ESMK (Everöd)
ESMK





Kodnycklar till TAF och METAR






LHP

(Feringe är område K2c i Sydöstra delen)

Prognos är inte uppdaterad




Spotting

Hur fungerar spotthjälpen och Vindkartan?

Markvind är ca 0 m/s.



Vindkartan

Senast uppdaterad 02:29




All data kommer från LFV.se